sensor_id;sensor_type;location;lat;lon;timestamp;P1;durP1;ratioP1;P2;durP2;ratioP2
53389;SDS011;39288;42.970;1.524;2023-06-10T00:00:24;5.40;;;2.47;;
53389;SDS011;39288;42.970;1.524;2023-06-10T00:01:24;5.77;;;2.10;;
53389;SDS011;39288;42.970;1.524;2023-06-10T00:02:28;2.93;;;1.70;;
53389;SDS011;39288;42.970;1.524;2023-06-10T00:03:28;3.35;;;2.08;;
53389;SDS011;39288;42.970;1.524;2023-06-10T00:04:29;3.00;;;2.00;;
53389;SDS011;39288;42.970;1.524;2023-06-10T00:05:30;3.97;;;1.90;;
53389;SDS011;39288;42.970;1.524;2023-06-10T00:06:31;4.50;;;1.90;;
53389;SDS011;39288;42.970;1.524;2023-06-10T00:07:37;3.28;;;1.52;;
53389;SDS011;39288;42.970;1.524;2023-06-10T00:08:38;3.93;;;1.73;;
53389;SDS011;39288;42.970;1.524;2023-06-10T00:09:39;7.60;;;1.80;;
53389;SDS011;39288;42.970;1.524;2023-06-10T00:10:40;2.87;;;1.50;;
53389;SDS011;39288;42.970;1.524;2023-06-10T00:11:41;11.33;;;2.20;;
53389;SDS011;39288;42.970;1.524;2023-06-10T00:12:42;8.13;;;1.90;;
53389;SDS011;39288;42.970;1.524;2023-06-10T00:13:43;5.35;;;1.85;;
53389;SDS011;39288;42.970;1.524;2023-06-10T00:14:44;4.00;;;2.20;;
53389;SDS011;39288;42.970;1.524;2023-06-10T00:15:45;3.93;;;1.80;;
53389;SDS011;39288;42.970;1.524;2023-06-10T00:16:45;3.53;;;2.17;;
53389;SDS011;39288;42.970;1.524;2023-06-10T00:17:46;6.03;;;2.03;;
53389;SDS011;39288;42.970;1.524;2023-06-10T00:18:46;6.53;;;1.70;;
53389;SDS011;39288;42.970;1.524;2023-06-10T00:19:47;8.30;;;2.10;;
53389;SDS011;39288;42.970;1.524;2023-06-10T00:20:47;4.93;;;1.70;;
53389;SDS011;39288;42.970;1.524;2023-06-10T00:21:52;3.55;;;1.70;;
53389;SDS011;39288;42.970;1.524;2023-06-10T00:22:53;6.77;;;2.10;;
53389;SDS011;39288;42.970;1.524;2023-06-10T00:23:54;5.77;;;2.20;;
53389;SDS011;39288;42.970;1.524;2023-06-10T00:24:55;6.97;;;1.98;;
53389;SDS011;39288;42.970;1.524;2023-06-10T00:25:59;2.95;;;2.08;;
53389;SDS011;39288;42.970;1.524;2023-06-10T00:26:59;7.03;;;2.60;;
53389;SDS011;39288;42.970;1.524;2023-06-10T00:28:00;4.03;;;2.00;;
53389;SDS011;39288;42.970;1.524;2023-06-10T00:29:00;6.07;;;2.20;;
53389;SDS011;39288;42.970;1.524;2023-06-10T00:30:04;7.07;;;2.40;;
53389;SDS011;39288;42.970;1.524;2023-06-10T00:31:06;3.63;;;2.05;;
53389;SDS011;39288;42.970;1.524;2023-06-10T00:32:07;5.53;;;2.20;;
53389;SDS011;39288;42.970;1.524;2023-06-10T00:33:07;3.80;;;2.03;;
53389;SDS011;39288;42.970;1.524;2023-06-10T00:34:08;5.43;;;2.00;;
53389;SDS011;39288;42.970;1.524;2023-06-10T00:35:08;6.80;;;1.97;;
53389;SDS011;39288;42.970;1.524;2023-06-10T00:36:09;6.23;;;2.13;;
53389;SDS011;39288;42.970;1.524;2023-06-10T00:37:10;4.70;;;2.23;;
53389;SDS011;39288;42.970;1.524;2023-06-10T00:38:10;3.23;;;2.27;;
53389;SDS011;39288;42.970;1.524;2023-06-10T00:39:11;6.80;;;2.07;;
53389;SDS011;39288;42.970;1.524;2023-06-10T00:40:11;7.73;;;2.40;;
53389;SDS011;39288;42.970;1.524;2023-06-10T00:41:12;7.07;;;2.70;;
53389;SDS011;39288;42.970;1.524;2023-06-10T00:42:12;9.03;;;2.20;;
53389;SDS011;39288;42.970;1.524;2023-06-10T00:43:13;7.90;;;2.30;;
53389;SDS011;39288;42.970;1.524;2023-06-10T00:44:13;4.73;;;2.07;;
53389;SDS011;39288;42.970;1.524;2023-06-10T00:45:14;6.73;;;2.50;;
53389;SDS011;39288;42.970;1.524;2023-06-10T00:46:14;5.77;;;2.00;;
53389;SDS011;39288;42.970;1.524;2023-06-10T00:47:15;6.28;;;1.80;;
53389;SDS011;39288;42.970;1.524;2023-06-10T00:48:16;4.43;;;1.80;;
53389;SDS011;39288;42.970;1.524;2023-06-10T00:49:17;3.35;;;1.80;;
53389;SDS011;39288;42.970;1.524;2023-06-10T00:50:18;4.60;;;2.15;;
53389;SDS011;39288;42.970;1.524;2023-06-10T00:51:19;8.67;;;2.03;;
53389;SDS011;39288;42.970;1.524;2023-06-10T00:52:19;4.47;;;1.90;;
53389;SDS011;39288;42.970;1.524;2023-06-10T00:54:22;6.25;;;2.25;;
53389;SDS011;39288;42.970;1.524;2023-06-10T00:55:22;3.57;;;2.03;;
53389;SDS011;39288;42.970;1.524;2023-06-10T00:56:23;5.90;;;2.27;;
53389;SDS011;39288;42.970;1.524;2023-06-10T00:57:24;6.17;;;2.20;;
53389;SDS011;39288;42.970;1.524;2023-06-10T00:58:25;5.03;;;1.90;;
53389;SDS011;39288;42.970;1.524;2023-06-10T00:59:28;4.90;;;2.20;;
53389;SDS011;39288;42.970;1.524;2023-06-10T01:00:29;6.78;;;2.22;;
53389;SDS011;39288;42.970;1.524;2023-06-10T01:01:29;6.70;;;2.83;;
53389;SDS011;39288;42.970;1.524;2023-06-10T01:02:30;6.47;;;2.10;;
53389;SDS011;39288;42.970;1.524;2023-06-10T01:03:30;10.77;;;2.40;;
53389;SDS011;39288;42.970;1.524;2023-06-10T01:04:32;11.65;;;2.20;;
53389;SDS011;39288;42.970;1.524;2023-06-10T01:05:34;4.77;;;2.20;;
53389;SDS011;39288;42.970;1.524;2023-06-10T01:06:39;5.55;;;2.00;;
53389;SDS011;39288;42.970;1.524;2023-06-10T01:09:07;5.25;;;2.10;;
53389;SDS011;39288;42.970;1.524;2023-06-10T01:10:20;5.93;;;1.80;;
53389;SDS011;39288;42.970;1.524;2023-06-10T01:11:28;4.32;;;1.73;;
53389;SDS011;39288;42.970;1.524;2023-06-10T01:13:49;4.65;;;2.33;;
53389;SDS011;39288;42.970;1.524;2023-06-10T01:14:51;5.57;;;2.20;;
53389;SDS011;39288;42.970;1.524;2023-06-10T01:15:52;4.68;;;2.03;;
53389;SDS011;39288;42.970;1.524;2023-06-10T01:16:53;2.37;;;1.63;;
53389;SDS011;39288;42.970;1.524;2023-06-10T01:17:57;2.37;;;1.43;;
53389;SDS011;39288;42.970;1.524;2023-06-10T01:18:59;4.40;;;2.20;;
53389;SDS011;39288;42.970;1.524;2023-06-10T01:20:00;3.47;;;1.93;;
53389;SDS011;39288;42.970;1.524;2023-06-10T01:21:02;6.18;;;2.25;;
53389;SDS011;39288;42.970;1.524;2023-06-10T01:22:03;6.85;;;2.13;;
53389;SDS011;39288;42.970;1.524;2023-06-10T01:24:06;7.82;;;1.92;;
53389;SDS011;39288;42.970;1.524;2023-06-10T01:25:08;2.75;;;1.80;;
53389;SDS011;39288;42.970;1.524;2023-06-10T01:26:09;3.73;;;2.60;;
53389;SDS011;39288;42.970;1.524;2023-06-10T01:27:12;7.25;;;2.05;;
53389;SDS011;39288;42.970;1.524;2023-06-10T01:29:20;9.55;;;2.10;;
53389;SDS011;39288;42.970;1.524;2023-06-10T01:30:26;5.32;;;2.28;;
53389;SDS011;39288;42.970;1.524;2023-06-10T01:32:34;3.10;;;2.00;;
53389;SDS011;39288;42.970;1.524;2023-06-10T01:33:39;4.63;;;2.08;;
53389;SDS011;39288;42.970;1.524;2023-06-10T01:34:43;3.13;;;2.08;;
53389;SDS011;39288;42.970;1.524;2023-06-10T01:35:44;3.78;;;2.72;;
53389;SDS011;39288;42.970;1.524;2023-06-10T01:36:46;4.50;;;2.00;;
53389;SDS011;39288;42.970;1.524;2023-06-10T01:37:47;3.05;;;2.05;;
53389;SDS011;39288;42.970;1.524;2023-06-10T01:38:49;15.57;;;2.63;;
53389;SDS011;39288;42.970;1.524;2023-06-10T01:39:50;13.07;;;2.90;;
53389;SDS011;39288;42.970;1.524;2023-06-10T01:40:52;11.17;;;2.50;;
53389;SDS011;39288;42.970;1.524;2023-06-10T01:41:53;5.25;;;2.40;;
53389;SDS011;39288;42.970;1.524;2023-06-10T01:42:54;3.53;;;2.03;;
53389;SDS011;39288;42.970;1.524;2023-06-10T01:43:54;4.73;;;2.43;;
53389;SDS011;39288;42.970;1.524;2023-06-10T01:44:55;5.90;;;2.60;;
53389;SDS011;39288;42.970;1.524;2023-06-10T01:45:56;3.23;;;2.43;;
53389;SDS011;39288;42.970;1.524;2023-06-10T01:46:56;2.67;;;2.10;;
53389;SDS011;39288;42.970;1.524;2023-06-10T01:47:56;7.97;;;2.67;;
53389;SDS011;39288;42.970;1.524;2023-06-10T01:48:57;7.03;;;2.50;;
53389;SDS011;39288;42.970;1.524;2023-06-10T01:49:57;4.13;;;2.47;;
53389;SDS011;39288;42.970;1.524;2023-06-10T01:50:58;3.67;;;2.40;;
53389;SDS011;39288;42.970;1.524;2023-06-10T01:51:59;6.10;;;2.28;;
53389;SDS011;39288;42.970;1.524;2023-06-10T01:52:59;2.87;;;2.37;;
53389;SDS011;39288;42.970;1.524;2023-06-10T01:54:00;11.60;;;2.30;;
53389;SDS011;39288;42.970;1.524;2023-06-10T01:55:00;2.90;;;2.23;;
53389;SDS011;39288;42.970;1.524;2023-06-10T01:56:01;2.80;;;2.10;;
53389;SDS011;39288;42.970;1.524;2023-06-10T01:57:02;4.53;;;1.87;;
53389;SDS011;39288;42.970;1.524;2023-06-10T01:58:06;4.30;;;1.98;;
53389;SDS011;39288;42.970;1.524;2023-06-10T01:59:06;8.60;;;2.87;;
53389;SDS011;39288;42.970;1.524;2023-06-10T02:00:07;3.73;;;1.90;;
53389;SDS011;39288;42.970;1.524;2023-06-10T02:01:08;4.85;;;2.15;;
53389;SDS011;39288;42.970;1.524;2023-06-10T02:02:09;3.63;;;2.13;;
53389;SDS011;39288;42.970;1.524;2023-06-10T02:03:10;13.20;;;2.37;;
53389;SDS011;39288;42.970;1.524;2023-06-10T02:04:10;4.50;;;2.37;;
53389;SDS011;39288;42.970;1.524;2023-06-10T02:05:11;4.87;;;2.27;;
53389;SDS011;39288;42.970;1.524;2023-06-10T02:06:11;8.50;;;2.57;;
53389;SDS011;39288;42.970;1.524;2023-06-10T02:07:12;6.73;;;2.40;;
53389;SDS011;39288;42.970;1.524;2023-06-10T02:08:12;5.10;;;2.20;;
53389;SDS011;39288;42.970;1.524;2023-06-10T02:09:13;7.17;;;2.67;;
53389;SDS011;39288;42.970;1.524;2023-06-10T02:10:13;7.17;;;2.73;;
53389;SDS011;39288;42.970;1.524;2023-06-10T02:11:14;3.90;;;2.40;;
53389;SDS011;39288;42.970;1.524;2023-06-10T02:12:14;3.10;;;2.03;;
53389;SDS011;39288;42.970;1.524;2023-06-10T02:13:15;7.80;;;2.53;;
53389;SDS011;39288;42.970;1.524;2023-06-10T02:14:15;4.70;;;2.60;;
53389;SDS011;39288;42.970;1.524;2023-06-10T02:15:16;4.17;;;2.13;;
53389;SDS011;39288;42.970;1.524;2023-06-10T02:16:16;4.03;;;2.20;;
53389;SDS011;39288;42.970;1.524;2023-06-10T02:17:17;6.87;;;2.97;;
53389;SDS011;39288;42.970;1.524;2023-06-10T02:18:17;6.20;;;2.30;;
53389;SDS011;39288;42.970;1.524;2023-06-10T02:19:20;3.67;;;2.45;;
53389;SDS011;39288;42.970;1.524;2023-06-10T02:20:21;3.80;;;2.67;;
53389;SDS011;39288;42.970;1.524;2023-06-10T02:21:22;5.83;;;2.50;;
53389;SDS011;39288;42.970;1.524;2023-06-10T02:22:23;3.57;;;2.27;;
53389;SDS011;39288;42.970;1.524;2023-06-10T02:23:23;3.28;;;2.40;;
53389;SDS011;39288;42.970;1.524;2023-06-10T02:24:24;6.70;;;3.27;;
53389;SDS011;39288;42.970;1.524;2023-06-10T02:25:24;5.47;;;2.43;;
53389;SDS011;39288;42.970;1.524;2023-06-10T02:26:25;4.17;;;2.17;;
53389;SDS011;39288;42.970;1.524;2023-06-10T02:27:26;16.13;;;2.73;;
53389;SDS011;39288;42.970;1.524;2023-06-10T02:28:27;4.07;;;2.85;;
53389;SDS011;39288;42.970;1.524;2023-06-10T02:29:28;8.87;;;2.50;;
53389;SDS011;39288;42.970;1.524;2023-06-10T02:30:28;6.33;;;2.37;;
53389;SDS011;39288;42.970;1.524;2023-06-10T02:31:29;4.67;;;2.00;;
53389;SDS011;39288;42.970;1.524;2023-06-10T02:32:29;4.70;;;2.27;;
53389;SDS011;39288;42.970;1.524;2023-06-10T02:33:30;7.20;;;2.57;;
53389;SDS011;39288;42.970;1.524;2023-06-10T02:34:30;4.43;;;2.07;;
53389;SDS011;39288;42.970;1.524;2023-06-10T02:35:31;6.07;;;2.20;;
53389;SDS011;39288;42.970;1.524;2023-06-10T02:36:31;4.23;;;2.07;;
53389;SDS011;39288;42.970;1.524;2023-06-10T02:37:31;6.90;;;2.43;;
53389;SDS011;39288;42.970;1.524;2023-06-10T02:38:32;5.97;;;2.30;;
53389;SDS011;39288;42.970;1.524;2023-06-10T02:39:32;5.27;;;2.63;;
53389;SDS011;39288;42.970;1.524;2023-06-10T02:40:33;3.93;;;2.10;;
53389;SDS011;39288;42.970;1.524;2023-06-10T02:41:33;3.90;;;2.60;;
53389;SDS011;39288;42.970;1.524;2023-06-10T02:42:34;3.73;;;2.10;;
53389;SDS011;39288;42.970;1.524;2023-06-10T02:43:34;5.60;;;2.10;;
53389;SDS011;39288;42.970;1.524;2023-06-10T02:44:34;1.93;;;1.73;;
53389;SDS011;39288;42.970;1.524;2023-06-10T02:45:35;5.57;;;2.83;;
53389;SDS011;39288;42.970;1.524;2023-06-10T02:46:35;4.23;;;2.00;;
53389;SDS011;39288;42.970;1.524;2023-06-10T02:47:37;4.40;;;2.40;;
53389;SDS011;39288;42.970;1.524;2023-06-10T02:48:45;3.05;;;2.17;;
53389;SDS011;39288;42.970;1.524;2023-06-10T02:49:45;4.78;;;2.75;;
53389;SDS011;39288;42.970;1.524;2023-06-10T02:50:46;6.20;;;2.20;;
53389;SDS011;39288;42.970;1.524;2023-06-10T02:51:46;4.87;;;2.73;;
53389;SDS011;39288;42.970;1.524;2023-06-10T02:52:47;3.50;;;2.00;;
53389;SDS011;39288;42.970;1.524;2023-06-10T02:53:48;4.72;;;2.60;;
53389;SDS011;39288;42.970;1.524;2023-06-10T02:54:49;4.53;;;2.47;;
53389;SDS011;39288;42.970;1.524;2023-06-10T02:55:49;4.70;;;2.00;;
53389;SDS011;39288;42.970;1.524;2023-06-10T02:56:50;6.97;;;2.10;;
53389;SDS011;39288;42.970;1.524;2023-06-10T02:58:54;3.25;;;2.20;;
53389;SDS011;39288;42.970;1.524;2023-06-10T02:59:54;9.57;;;2.43;;
53389;SDS011;39288;42.970;1.524;2023-06-10T03:00:55;6.10;;;2.30;;
53389;SDS011;39288;42.970;1.524;2023-06-10T03:01:55;5.63;;;2.10;;
53389;SDS011;39288;42.970;1.524;2023-06-10T03:02:55;4.00;;;2.10;;
53389;SDS011;39288;42.970;1.524;2023-06-10T03:03:57;4.07;;;2.15;;
53389;SDS011;39288;42.970;1.524;2023-06-10T03:04:58;8.30;;;2.38;;
53389;SDS011;39288;42.970;1.524;2023-06-10T03:05:59;8.53;;;2.47;;
53389;SDS011;39288;42.970;1.524;2023-06-10T03:06:59;4.70;;;2.10;;
53389;SDS011;39288;42.970;1.524;2023-06-10T03:08:03;4.60;;;1.90;;
53389;SDS011;39288;42.970;1.524;2023-06-10T03:09:04;7.60;;;2.73;;
53389;SDS011;39288;42.970;1.524;2023-06-10T03:10:05;6.40;;;2.20;;
53389;SDS011;39288;42.970;1.524;2023-06-10T03:11:06;13.40;;;2.60;;
53389;SDS011;39288;42.970;1.524;2023-06-10T03:12:07;4.73;;;2.20;;
53389;SDS011;39288;42.970;1.524;2023-06-10T03:13:08;8.80;;;2.90;;
53389;SDS011;39288;42.970;1.524;2023-06-10T03:14:10;7.05;;;2.58;;
53389;SDS011;39288;42.970;1.524;2023-06-10T03:15:10;4.93;;;2.50;;
53389;SDS011;39288;42.970;1.524;2023-06-10T03:16:10;4.33;;;2.43;;
53389;SDS011;39288;42.970;1.524;2023-06-10T03:17:12;4.93;;;2.60;;
53389;SDS011;39288;42.970;1.524;2023-06-10T03:18:13;3.73;;;2.63;;
53389;SDS011;39288;42.970;1.524;2023-06-10T03:19:13;4.33;;;2.70;;
53389;SDS011;39288;42.970;1.524;2023-06-10T03:20:13;4.23;;;2.53;;
53389;SDS011;39288;42.970;1.524;2023-06-10T03:22:16;3.08;;;2.28;;
53389;SDS011;39288;42.970;1.524;2023-06-10T03:23:17;7.63;;;2.30;;
53389;SDS011;39288;42.970;1.524;2023-06-10T03:24:18;3.67;;;2.60;;
53389;SDS011;39288;42.970;1.524;2023-06-10T03:25:18;11.80;;;2.50;;
53389;SDS011;39288;42.970;1.524;2023-06-10T03:27:22;8.45;;;2.35;;
53389;SDS011;39288;42.970;1.524;2023-06-10T03:28:22;5.40;;;2.40;;
53389;SDS011;39288;42.970;1.524;2023-06-10T03:29:23;4.97;;;2.50;;
53389;SDS011;39288;42.970;1.524;2023-06-10T03:30:23;5.67;;;2.27;;
53389;SDS011;39288;42.970;1.524;2023-06-10T03:31:23;4.70;;;2.53;;
53389;SDS011;39288;42.970;1.524;2023-06-10T03:32:24;3.70;;;2.70;;
53389;SDS011;39288;42.970;1.524;2023-06-10T03:33:25;4.28;;;2.20;;
53389;SDS011;39288;42.970;1.524;2023-06-10T03:34:26;4.17;;;2.87;;
53389;SDS011;39288;42.970;1.524;2023-06-10T03:35:26;6.80;;;2.60;;
53389;SDS011;39288;42.970;1.524;2023-06-10T03:36:27;6.73;;;2.80;;
53389;SDS011;39288;42.970;1.524;2023-06-10T03:37:29;5.40;;;2.35;;
53389;SDS011;39288;42.970;1.524;2023-06-10T03:38:29;7.37;;;2.90;;
53389;SDS011;39288;42.970;1.524;2023-06-10T03:39:30;3.93;;;3.10;;
53389;SDS011;39288;42.970;1.524;2023-06-10T03:40:30;8.77;;;2.63;;
53389;SDS011;39288;42.970;1.524;2023-06-10T03:41:31;8.32;;;2.58;;
53389;SDS011;39288;42.970;1.524;2023-06-10T03:42:32;6.90;;;2.80;;
53389;SDS011;39288;42.970;1.524;2023-06-10T03:43:33;3.90;;;2.73;;
53389;SDS011;39288;42.970;1.524;2023-06-10T03:44:33;6.23;;;2.37;;
53389;SDS011;39288;42.970;1.524;2023-06-10T03:45:34;3.40;;;2.53;;
53389;SDS011;39288;42.970;1.524;2023-06-10T03:46:34;2.03;;;1.83;;
53389;SDS011;39288;42.970;1.524;2023-06-10T03:47:35;5.70;;;2.33;;
53389;SDS011;39288;42.970;1.524;2023-06-10T03:48:36;7.22;;;3.08;;
53389;SDS011;39288;42.970;1.524;2023-06-10T03:50:40;3.45;;;2.60;;
53389;SDS011;39288;42.970;1.524;2023-06-10T03:51:40;8.30;;;2.30;;
53389;SDS011;39288;42.970;1.524;2023-06-10T03:52:41;8.60;;;2.60;;
53389;SDS011;39288;42.970;1.524;2023-06-10T03:53:42;3.63;;;2.67;;
53389;SDS011;39288;42.970;1.524;2023-06-10T03:54:42;3.30;;;2.33;;
53389;SDS011;39288;42.970;1.524;2023-06-10T03:55:43;9.50;;;2.67;;
53389;SDS011;39288;42.970;1.524;2023-06-10T03:56:43;7.33;;;2.73;;
53389;SDS011;39288;42.970;1.524;2023-06-10T03:57:44;5.85;;;2.22;;
53389;SDS011;39288;42.970;1.524;2023-06-10T03:58:44;5.33;;;2.47;;
53389;SDS011;39288;42.970;1.524;2023-06-10T03:59:45;13.43;;;3.53;;
53389;SDS011;39288;42.970;1.524;2023-06-10T04:00:45;8.17;;;3.00;;
53389;SDS011;39288;42.970;1.524;2023-06-10T04:01:47;5.70;;;2.75;;
53389;SDS011;39288;42.970;1.524;2023-06-10T04:02:47;5.90;;;2.57;;
53389;SDS011;39288;42.970;1.524;2023-06-10T04:03:52;7.15;;;2.50;;
53389;SDS011;39288;42.970;1.524;2023-06-10T04:04:54;6.18;;;2.80;;
53389;SDS011;39288;42.970;1.524;2023-06-10T04:05:54;4.97;;;2.60;;
53389;SDS011;39288;42.970;1.524;2023-06-10T04:06:54;5.80;;;2.70;;
53389;SDS011;39288;42.970;1.524;2023-06-10T04:07:55;7.77;;;2.47;;
53389;SDS011;39288;42.970;1.524;2023-06-10T04:08:56;4.50;;;2.83;;
53389;SDS011;39288;42.970;1.524;2023-06-10T04:09:57;6.57;;;2.73;;
53389;SDS011;39288;42.970;1.524;2023-06-10T04:10:57;3.50;;;2.67;;
53389;SDS011;39288;42.970;1.524;2023-06-10T04:11:58;4.73;;;3.00;;
53389;SDS011;39288;42.970;1.524;2023-06-10T04:12:58;4.47;;;2.47;;
53389;SDS011;39288;42.970;1.524;2023-06-10T04:13:59;3.67;;;3.17;;
53389;SDS011;39288;42.970;1.524;2023-06-10T04:15:00;3.33;;;2.70;;
53389;SDS011;39288;42.970;1.524;2023-06-10T04:16:00;3.70;;;2.57;;
53389;SDS011;39288;42.970;1.524;2023-06-10T04:17:02;6.90;;;2.88;;
53389;SDS011;39288;42.970;1.524;2023-06-10T04:18:03;10.27;;;3.00;;
53389;SDS011;39288;42.970;1.524;2023-06-10T04:19:04;5.25;;;2.90;;
53389;SDS011;39288;42.970;1.524;2023-06-10T04:20:05;4.43;;;2.53;;
53389;SDS011;39288;42.970;1.524;2023-06-10T04:21:07;4.53;;;2.47;;
53389;SDS011;39288;42.970;1.524;2023-06-10T04:22:08;7.45;;;3.47;;
53389;SDS011;39288;42.970;1.524;2023-06-10T04:23:09;5.97;;;2.53;;
53389;SDS011;39288;42.970;1.524;2023-06-10T04:24:09;5.93;;;2.97;;
53389;SDS011;39288;42.970;1.524;2023-06-10T04:25:10;7.10;;;3.00;;
53389;SDS011;39288;42.970;1.524;2023-06-10T04:26:10;6.30;;;3.03;;
53389;SDS011;39288;42.970;1.524;2023-06-10T04:27:12;4.82;;;2.67;;
53389;SDS011;39288;42.970;1.524;2023-06-10T04:28:12;5.57;;;2.60;;
53389;SDS011;39288;42.970;1.524;2023-06-10T04:29:13;3.10;;;2.23;;
53389;SDS011;39288;42.970;1.524;2023-06-10T04:30:15;8.97;;;2.93;;
53389;SDS011;39288;42.970;1.524;2023-06-10T04:31:16;5.43;;;2.22;;
53389;SDS011;39288;42.970;1.524;2023-06-10T04:32:16;5.03;;;2.40;;
53389;SDS011;39288;42.970;1.524;2023-06-10T04:33:17;6.90;;;2.40;;
53389;SDS011;39288;42.970;1.524;2023-06-10T04:34:17;4.10;;;2.50;;
53389;SDS011;39288;42.970;1.524;2023-06-10T04:35:18;7.30;;;3.13;;
53389;SDS011;39288;42.970;1.524;2023-06-10T04:36:18;7.93;;;2.40;;
53389;SDS011;39288;42.970;1.524;2023-06-10T04:37:19;5.33;;;2.40;;
53389;SDS011;39288;42.970;1.524;2023-06-10T04:38:20;4.77;;;2.63;;
53389;SDS011;39288;42.970;1.524;2023-06-10T04:39:21;4.00;;;2.55;;
53389;SDS011;39288;42.970;1.524;2023-06-10T04:40:22;7.10;;;2.30;;
53389;SDS011;39288;42.970;1.524;2023-06-10T04:41:23;8.50;;;2.30;;
53389;SDS011;39288;42.970;1.524;2023-06-10T04:42:23;6.10;;;2.50;;
53389;SDS011;39288;42.970;1.524;2023-06-10T04:43:24;7.67;;;2.67;;
53389;SDS011;39288;42.970;1.524;2023-06-10T04:44:24;4.03;;;2.00;;
53389;SDS011;39288;42.970;1.524;2023-06-10T04:45:24;7.67;;;2.00;;
53389;SDS011;39288;42.970;1.524;2023-06-10T04:46:25;9.37;;;2.63;;
53389;SDS011;39288;42.970;1.524;2023-06-10T04:47:26;6.23;;;2.20;;
53389;SDS011;39288;42.970;1.524;2023-06-10T04:48:26;4.90;;;2.40;;
53389;SDS011;39288;42.970;1.524;2023-06-10T04:49:27;8.33;;;2.60;;
53389;SDS011;39288;42.970;1.524;2023-06-10T04:50:28;4.65;;;2.40;;
53389;SDS011;39288;42.970;1.524;2023-06-10T04:51:29;5.97;;;2.60;;
53389;SDS011;39288;42.970;1.524;2023-06-10T04:52:30;4.13;;;2.40;;
53389;SDS011;39288;42.970;1.524;2023-06-10T04:53:31;6.27;;;2.97;;
53389;SDS011;39288;42.970;1.524;2023-06-10T04:54:31;6.27;;;2.67;;
53389;SDS011;39288;42.970;1.524;2023-06-10T04:55:32;10.27;;;2.70;;
53389;SDS011;39288;42.970;1.524;2023-06-10T04:56:34;16.05;;;3.80;;
53389;SDS011;39288;42.970;1.524;2023-06-10T04:57:34;5.43;;;2.67;;
53389;SDS011;39288;42.970;1.524;2023-06-10T04:58:35;6.77;;;2.60;;
53389;SDS011;39288;42.970;1.524;2023-06-10T04:59:35;9.73;;;2.90;;
53389;SDS011;39288;42.970;1.524;2023-06-10T05:00:38;5.15;;;2.35;;
53389;SDS011;39288;42.970;1.524;2023-06-10T05:01:38;2.40;;;2.20;;
53389;SDS011;39288;42.970;1.524;2023-06-10T05:02:38;3.43;;;2.30;;
53389;SDS011;39288;42.970;1.524;2023-06-10T05:03:39;3.57;;;2.50;;
53389;SDS011;39288;42.970;1.524;2023-06-10T05:04:40;3.00;;;2.37;;
53389;SDS011;39288;42.970;1.524;2023-06-10T05:05:40;3.87;;;1.93;;
53389;SDS011;39288;42.970;1.524;2023-06-10T05:06:40;6.27;;;2.40;;
53389;SDS011;39288;42.970;1.524;2023-06-10T05:07:41;5.93;;;2.00;;
53389;SDS011;39288;42.970;1.524;2023-06-10T05:08:41;5.20;;;2.07;;
53389;SDS011;39288;42.970;1.524;2023-06-10T05:09:42;3.83;;;2.30;;
53389;SDS011;39288;42.970;1.524;2023-06-10T05:10:42;2.83;;;1.97;;
53389;SDS011;39288;42.970;1.524;2023-06-10T05:11:43;2.43;;;1.83;;
53389;SDS011;39288;42.970;1.524;2023-06-10T05:13:45;3.03;;;2.33;;
53389;SDS011;39288;42.970;1.524;2023-06-10T05:14:45;2.50;;;1.97;;
53389;SDS011;39288;42.970;1.524;2023-06-10T05:15:46;2.70;;;1.57;;
53389;SDS011;39288;42.970;1.524;2023-06-10T05:16:47;6.13;;;2.77;;
53389;SDS011;39288;42.970;1.524;2023-06-10T05:17:48;2.80;;;2.03;;
53389;SDS011;39288;42.970;1.524;2023-06-10T05:18:48;4.67;;;2.03;;
53389;SDS011;39288;42.970;1.524;2023-06-10T05:19:51;4.38;;;1.80;;
53389;SDS011;39288;42.970;1.524;2023-06-10T05:20:51;4.27;;;1.87;;
53389;SDS011;39288;42.970;1.524;2023-06-10T05:21:53;4.18;;;1.60;;
53389;SDS011;39288;42.970;1.524;2023-06-10T05:22:54;2.27;;;1.60;;
53389;SDS011;39288;42.970;1.524;2023-06-10T05:23:56;2.92;;;1.65;;
53389;SDS011;39288;42.970;1.524;2023-06-10T05:24:56;4.00;;;1.53;;
53389;SDS011;39288;42.970;1.524;2023-06-10T05:25:57;3.73;;;1.40;;
53389;SDS011;39288;42.970;1.524;2023-06-10T05:26:58;4.53;;;1.50;;
53389;SDS011;39288;42.970;1.524;2023-06-10T05:27:59;4.75;;;1.40;;
53389;SDS011;39288;42.970;1.524;2023-06-10T05:28:59;5.37;;;1.50;;
53389;SDS011;39288;42.970;1.524;2023-06-10T05:30:00;7.10;;;1.97;;
53389;SDS011;39288;42.970;1.524;2023-06-10T05:31:01;1.97;;;1.57;;
53389;SDS011;39288;42.970;1.524;2023-06-10T05:32:01;2.00;;;1.47;;
53389;SDS011;39288;42.970;1.524;2023-06-10T05:33:03;2.03;;;1.20;;
53389;SDS011;39288;42.970;1.524;2023-06-10T05:34:04;3.28;;;1.75;;
53389;SDS011;39288;42.970;1.524;2023-06-10T05:35:05;2.43;;;1.70;;
53389;SDS011;39288;42.970;1.524;2023-06-10T05:36:06;5.50;;;2.05;;
53389;SDS011;39288;42.970;1.524;2023-06-10T05:37:06;2.43;;;2.17;;
53389;SDS011;39288;42.970;1.524;2023-06-10T05:38:07;9.93;;;1.93;;
53389;SDS011;39288;42.970;1.524;2023-06-10T05:39:09;5.53;;;1.37;;
53389;SDS011;39288;42.970;1.524;2023-06-10T05:40:10;4.18;;;1.40;;
53389;SDS011;39288;42.970;1.524;2023-06-10T05:41:11;3.15;;;1.60;;
53389;SDS011;39288;42.970;1.524;2023-06-10T05:42:11;5.50;;;1.60;;
53389;SDS011;39288;42.970;1.524;2023-06-10T05:43:12;6.53;;;1.20;;
53389;SDS011;39288;42.970;1.524;2023-06-10T05:44:12;5.43;;;1.73;;
53389;SDS011;39288;42.970;1.524;2023-06-10T05:45:13;3.23;;;1.50;;
53389;SDS011;39288;42.970;1.524;2023-06-10T05:46:13;4.93;;;1.60;;
53389;SDS011;39288;42.970;1.524;2023-06-10T05:47:14;5.47;;;1.70;;
53389;SDS011;39288;42.970;1.524;2023-06-10T05:48:14;3.03;;;1.50;;
53389;SDS011;39288;42.970;1.524;2023-06-10T05:49:15;6.57;;;1.23;;
53389;SDS011;39288;42.970;1.524;2023-06-10T05:50:15;3.40;;;1.60;;
53389;SDS011;39288;42.970;1.524;2023-06-10T05:51:16;4.83;;;1.60;;
53389;SDS011;39288;42.970;1.524;2023-06-10T05:52:16;2.63;;;1.53;;
53389;SDS011;39288;42.970;1.524;2023-06-10T05:53:17;5.68;;;1.35;;
53389;SDS011;39288;42.970;1.524;2023-06-10T05:54:18;9.93;;;1.43;;
53389;SDS011;39288;42.970;1.524;2023-06-10T05:55:19;4.57;;;1.43;;
53389;SDS011;39288;42.970;1.524;2023-06-10T05:56:19;10.03;;;1.60;;
53389;SDS011;39288;42.970;1.524;2023-06-10T05:57:22;4.55;;;1.40;;
53389;SDS011;39288;42.970;1.524;2023-06-10T05:58:23;2.50;;;1.33;;
53389;SDS011;39288;42.970;1.524;2023-06-10T05:59:23;3.83;;;1.60;;
53389;SDS011;39288;42.970;1.524;2023-06-10T06:00:24;2.50;;;1.67;;
53389;SDS011;39288;42.970;1.524;2023-06-10T06:01:24;2.40;;;1.40;;
53389;SDS011;39288;42.970;1.524;2023-06-10T06:02:25;6.90;;;2.07;;
53389;SDS011;39288;42.970;1.524;2023-06-10T06:03:25;5.63;;;1.37;;
53389;SDS011;39288;42.970;1.524;2023-06-10T06:04:28;5.43;;;1.80;;
53389;SDS011;39288;42.970;1.524;2023-06-10T06:05:28;7.63;;;2.03;;
53389;SDS011;39288;42.970;1.524;2023-06-10T06:06:35;3.65;;;1.55;;
53389;SDS011;39288;42.970;1.524;2023-06-10T06:07:36;4.00;;;1.70;;
53389;SDS011;39288;42.970;1.524;2023-06-10T06:08:36;2.70;;;1.43;;
53389;SDS011;39288;42.970;1.524;2023-06-10T06:09:37;2.60;;;1.30;;
53389;SDS011;39288;42.970;1.524;2023-06-10T06:10:37;4.17;;;1.67;;
53389;SDS011;39288;42.970;1.524;2023-06-10T06:11:37;3.77;;;1.43;;
53389;SDS011;39288;42.970;1.524;2023-06-10T06:12:38;5.47;;;1.70;;
53389;SDS011;39288;42.970;1.524;2023-06-10T06:13:38;6.23;;;1.40;;
53389;SDS011;39288;42.970;1.524;2023-06-10T06:14:39;6.07;;;1.27;;
53389;SDS011;39288;42.970;1.524;2023-06-10T06:15:40;2.27;;;1.40;;
53389;SDS011;39288;42.970;1.524;2023-06-10T06:16:40;10.83;;;1.47;;
53389;SDS011;39288;42.970;1.524;2023-06-10T06:17:41;4.23;;;1.37;;
53389;SDS011;39288;42.970;1.524;2023-06-10T06:18:41;2.93;;;1.33;;
53389;SDS011;39288;42.970;1.524;2023-06-10T06:19:42;4.10;;;1.20;;